Main page
METAR-TAF:

METAR-TAF

Airports :

Oran Tafraoui Airport

Tafraoui, Algeria

latitude: 35-32-33N, longitude: 000-31-56W, elevation: 112 m

Current weather observation

The report was made 25 minutes ago, at 06:00 UTC
Wind 6 kt from the East
Temperature 16°C
Humidity 100%
Pressure 1022 hPa
Visibility: 5000 m
Scattered clouds at a height of 1000 ft
Scattered clouds at a height of 10000 ft

METAR: DAOL 230600Z 08006KT 5000 SCT010 SCT100 16/16 Q1022

Time: 07:25 (06:25 UTC)


TAF: missing

Weather observations and forecasts of more than 4000 airports (METAR and TAF reports).

The available stations are represented by yellow and red dots on the map.

Hover mouse over dot to see the name of the station.

Then click to see weather observations and forecasts.

To change the map : click on the green buttons with a black cross to zoom in, on the green button with a dash to zoom out, or on the green arrows for adjacent maps.


METAR-TAF: